Time;durP1;ratioP1;P1;durP2;ratioP2;P2;SDS_P1;SDS_P2;PMS_P1;PMS_P2;Temp;Humidity;BMP_temperature;BMP_pressure;BME280_temperature;BME280_humidity;BME280_pressure;Samples;Min_cycle;Max_cycle;Signal;HPM_P1;HPM_P2
2022/05/01 00:03:31;;;;;;;29.00;16.80;;;;;;;4.73;56.51;100067.20;420943;1298;142080;-60
2022/05/01 00:13:37;;;;;;;24.30;17.30;;;;;;;4.48;57.26;100067.83;421262;1297;140949;-61
2022/05/01 00:23:44;;;;;;;31.70;17.00;;;;;;;4.25;57.99;100066.09;424568;1290;141405;-60
2022/05/01 00:44:14;;;;;;;24.80;16.20;;;;;;;3.73;59.30;100062.23;426572;1285;142751;-59
2022/05/01 00:54:22;;;;;;;36.30;18.80;;;;;;;3.52;59.78;100065.23;425925;1287;142074;-61
2022/05/01 01:04:28;;;;;;;32.50;18.30;;;;;;;3.38;60.36;100061.27;427814;1287;141514;-62
2022/05/01 01:14:34;;;;;;;28.60;19.20;;;;;;;3.24;60.83;100054.20;426820;1287;142167;-59
2022/05/01 01:24:44;;;;;;;34.60;20.00;;;;;;;3.11;61.43;100053.15;425600;1287;142180;-59
2022/05/01 01:34:51;;;;;;;37.10;20.50;;;;;;;2.97;61.60;100050.89;427093;1286;141841;-60
2022/05/01 01:45:00;;;;;;;35.30;21.00;;;;;;;2.84;61.76;100053.81;426338;1287;141491;-60
2022/05/01 01:55:08;;;;;;;32.50;22.10;;;;;;;2.67;62.29;100049.20;426524;1287;144509;-59
2022/05/01 02:05:12;;;;;;;;;;;;;;;2.51;62.63;100048.89;426726;1287;141668;-59
2022/05/01 02:15:18;;;;;;;28.50;20.20;;;;;;;2.36;63.47;100050.27;425961;1287;130668;-59
2022/05/01 02:25:24;;;;;;;31.30;21.20;;;;;;;2.24;63.63;100044.85;426628;1287;142130;-59
2022/05/01 02:35:30;;;;;;;30.80;22.20;;;;;;;2.13;63.93;100045.59;426968;1287;142602;-59
2022/05/01 02:45:35;;;;;;;33.10;20.90;;;;;;;2.04;65.05;100040.97;427944;1286;143480;-59
2022/05/01 02:55:41;;;;;;;30.30;20.20;;;;;;;1.94;64.49;100032.88;427768;1286;142063;-62
2022/05/01 03:05:47;;;;;;;32.70;20.80;;;;;;;1.87;64.93;100031.46;425960;1287;142387;-60
2022/05/01 03:15:53;;;;;;;35.00;22.00;;;;;;;1.85;65.01;100030.66;427100;1287;145308;-59
2022/05/01 03:25:59;;;;;;;46.80;24.10;;;;;;;1.84;65.26;100032.71;426202;1287;141474;-59
2022/05/01 03:36:06;;;;;;;30.00;21.30;;;;;;;2.01;65.61;100031.01;426080;1286;142770;-62
2022/05/01 03:46:13;;;;;;;34.60;22.60;;;;;;;2.31;65.21;100028.61;426880;1287;141392;-59
2022/05/01 03:56:19;;;;;;;31.50;20.60;;;;;;;2.74;64.85;100030.37;426898;1287;142858;-59
2022/05/01 04:06:25;;;;;;;35.40;21.40;;;;;;;3.31;64.39;100034.11;426350;1287;200391;-59
2022/05/01 04:16:30;;;;;;;33.40;22.50;;;;;;;4.10;64.16;100033.44;426480;1287;142233;-59
2022/05/01 04:26:37;;;;;;;28.50;20.50;;;;;;;5.20;63.10;100030.11;426298;1287;145707;-57
2022/05/01 04:36:43;;;;;;;26.00;19.80;;;;;;;6.31;61.54;100036.31;427096;1287;142176;-58
2022/05/01 04:46:50;;;;;;;29.40;22.10;;;;;;;7.38;60.31;100034.03;426993;1286;142566;-60
2022/05/01 04:57:09;;;;;;;29.00;21.40;;;;;;;8.59;58.49;100031.33;426042;1287;142668;-56
2022/05/01 05:07:15;;;;;;;24.70;18.60;;;;;;;12.15;56.75;100028.34;426977;1287;140806;-58
2022/05/01 05:17:22;;;;;;;16.30;12.70;;;;;;;20.15;47.70;100015.88;427157;1286;141447;-59
2022/05/01 05:27:28;;;;;;;15.00;11.50;;;;;;;25.34;39.07;100006.99;427078;1287;142408;-59
2022/05/01 05:37:33;;;;;;;6.70;6.10;;;;;;;29.58;32.45;100003.99;427195;1287;141313;-59
2022/05/01 05:47:39;;;;;;;6.50;4.40;;;;;;;33.00;26.83;100000.35;427960;1286;143804;-59
2022/05/01 05:57:43;;;;;;;;;;;;;;;34.33;23.24;100000.97;427294;1286;140198;-59
2022/05/01 06:07:49;;;;;;;5.40;4.80;;;;;;;35.43;20.96;100004.02;427253;1287;138283;-58
2022/05/01 06:17:55;;;;;;;5.30;4.80;;;;;;;35.33;19.64;100006.14;426030;1287;146285;-58
2022/05/01 06:28:01;;;;;;;4.60;4.20;;;;;;;37.43;18.06;100011.92;427121;1287;142307;-58
2022/05/01 06:38:07;;;;;;;3.90;3.60;;;;;;;38.70;16.47;100005.70;427933;1287;144991;-59
2022/05/01 06:48:14;;;;;;;3.80;3.40;;;;;;;38.77;15.53;100006.48;427425;1285;140965;-58
2022/05/01 06:58:19;;;;;;;4.10;3.60;;;;;;;38.57;14.59;100006.84;428211;1286;140882;-59
2022/05/01 07:08:25;;;;;;;2.50;2.30;;;;;;;37.37;14.45;100010.02;426986;1287;141506;-59
2022/05/01 07:18:31;;;;;;;3.50;2.00;;;;;;;35.83;14.49;100012.70;426633;1287;141101;-59
2022/05/01 07:28:36;;;;;;;2.70;2.00;;;;;;;34.45;14.49;100007.86;427359;1287;141927;-60
2022/05/01 07:38:42;;;;;;;2.60;1.80;;;;;;;35.36;14.27;100002.77;426011;1287;140669;-61
2022/05/01 07:48:48;;;;;;;3.00;1.90;;;;;;;36.28;13.76;100006.67;426803;1287;141303;-58
2022/05/01 07:58:54;;;;;;;3.80;2.40;;;;;;;39.06;13.12;100007.64;427341;1285;142825;-58
2022/05/01 08:09:00;;;;;;;2.90;2.00;;;;;;;40.50;11.92;100003.61;426200;1287;141978;-59
2022/05/01 08:29:29;;;;;;;3.90;1.40;;;;;;;30.33;14.02;99991.02;427106;1286;140911;-58
2022/05/01 08:39:33;;;;;;;;;;;;;;;27.92;15.28;99980.48;426983;1287;140475;-58
2022/05/01 08:49:41;;;;;;;1.70;1.60;;;;;;;25.84;16.14;99980.11;426508;1287;127195;-67
2022/05/01 08:59:50;;;;;;;4.70;1.60;;;;;;;24.55;17.16;99978.84;426410;1286;141848;-68
2022/05/01 09:09:57;;;;;;;3.20;1.40;;;;;;;23.13;17.78;99977.40;431278;1286;141030;-65
2022/05/01 09:20:10;;;;;;;2.30;1.50;;;;;;;22.72;18.37;99974.56;440470;1286;141490;-66
2022/05/01 09:30:20;;;;;;;3.30;1.60;;;;;;;22.36;18.72;99970.37;427197;1286;140839;-66
2022/05/01 09:40:32;;;;;;;2.80;1.50;;;;;;;21.76;19.46;99971.98;425971;1287;279576;-68
2022/05/01 09:50:45;;;;;;;2.10;1.20;;;;;;;21.96;19.78;99962.15;427389;1286;142408;-67
2022/05/01 10:00:53;;;;;;;2.70;1.60;;;;;;;21.81;19.90;99952.84;426576;1287;141683;-67
2022/05/01 10:11:00;;;;;;;2.80;2.20;;;;;;;20.90;20.62;99949.15;426454;1287;140736;-68
2022/05/01 10:21:07;;;;;;;6.80;1.70;;;;;;;20.66;21.04;99941.27;427526;1286;141464;-70
2022/05/01 10:41:50;;;;;;;2.20;2.00;;;;;;;20.55;21.94;99927.43;428549;1287;145428;-61
2022/05/01 10:52:13;;;;;;;4.90;2.10;;;;;;;19.75;22.68;99921.57;429308;1286;142569;-64
2022/05/01 11:02:38;;;;;;;4.70;2.30;;;;;;;19.51;23.23;99911.49;427410;1287;141186;-66
2022/05/01 11:12:44;;;;;;;3.30;2.40;;;;;;;19.57;23.18;99909.81;426800;1286;141148;-66
2022/05/01 11:22:51;;;;;;;1.90;1.60;;;;;;;19.38;23.23;99905.27;426082;1287;142231;-66
2022/05/01 11:33:05;;;;;;;3.00;1.90;;;;;;;18.83;23.21;99901.89;427188;1287;141161;-65
2022/05/01 11:43:22;;;;;;;2.20;1.20;;;;;;;18.99;23.36;99891.52;427926;1286;140603;-66
2022/05/01 11:53:29;;;;;;;2.20;1.80;;;;;;;18.98;23.47;99885.22;425942;1285;141035;-67
2022/05/01 12:03:35;;;;;;;3.30;1.80;;;;;;;18.96;23.53;99875.67;428284;1287;143101;-67
2022/05/01 12:13:41;;;;;;;1.80;1.50;;;;;;;18.94;23.53;99871.78;425847;1285;140474;-65
2022/05/01 12:23:50;;;;;;;2.60;2.40;;;;;;;18.94;24.05;99866.95;427017;1285;143970;-65
2022/05/01 12:33:56;;;;;;;2.20;1.50;;;;;;;18.54;24.96;99859.40;427017;1285;140771;-65
2022/05/01 12:44:02;;;;;;;1.80;1.60;;;;;;;18.38;24.93;99857.44;425964;1285;140585;-67
2022/05/01 12:54:17;;;;;;;3.40;1.80;;;;;;;18.39;25.09;99845.32;427163;1285;144709;-66
2022/05/01 13:04:27;;;;;;;3.30;1.70;;;;;;;18.52;24.79;99833.70;426746;1286;140337;-66
2022/05/01 13:14:35;;;;;;;3.50;1.70;;;;;;;18.64;24.75;99822.75;426466;1285;141521;-67
2022/05/01 13:24:43;;;;;;;4.00;2.00;;;;;;;18.58;24.94;99812.16;425865;1287;141809;-65
2022/05/01 13:34:49;;;;;;;4.80;1.60;;;;;;;18.68;25.19;99805.58;426837;1285;144884;-65
2022/05/01 13:44:55;;;;;;;2.40;2.20;;;;;;;19.01;25.35;99797.48;425642;1287;140935;-64
2022/05/01 13:55:00;;;;;;;3.10;1.90;;;;;;;19.05;25.38;99791.99;427888;1286;144728;-67
2022/05/01 14:05:08;;;;;;;3.40;1.80;;;;;;;19.00;25.66;99786.02;427549;1287;145228;-66
2022/05/01 14:15:14;;;;;;;3.10;2.60;;;;;;;18.95;25.81;99781.06;429321;1287;142154;-66
2022/05/01 14:25:20;;;;;;;3.80;1.60;;;;;;;18.65;25.80;99786.14;427661;1287;141379;-67
2022/05/01 14:35:29;;;;;;;4.20;1.80;;;;;;;18.35;25.89;99779.38;426264;1286;140611;-65
2022/05/01 14:45:39;;;;;;;5.00;2.30;;;;;;;18.45;25.75;99777.88;426233;1286;143282;-63
2022/05/01 14:55:48;;;;;;;2.20;1.90;;;;;;;18.55;25.73;99764.65;427607;1287;141471;-59
2022/05/01 15:16:34;;;;;;;3.10;2.10;;;;;;;18.63;25.89;99750.36;427537;1287;141346;-58
2022/05/01 15:26:40;;;;;;;4.50;2.20;;;;;;;18.65;25.73;99747.36;431329;1287;140682;-58
2022/05/01 15:36:47;;;;;;;4.40;2.30;;;;;;;18.60;25.97;99741.05;437095;1286;141121;-56
2022/05/01 15:46:58;;;;;;;2.70;2.50;;;;;;;18.29;26.15;99741.34;426424;1287;141186;-58
2022/05/01 15:57:06;;;;;;;2.80;2.10;;;;;;;18.02;26.47;99735.13;428271;1286;161553;-58
2022/05/01 16:07:19;;;;;;;3.30;2.90;;;;;;;17.68;26.84;99737.35;427011;1286;141792;-58
2022/05/01 16:17:39;;;;;;;5.20;2.40;;;;;;;17.35;27.37;99742.67;426642;1287;141602;-59
2022/05/01 16:27:57;;;;;;;3.30;1.90;;;;;;;17.19;27.47;99739.10;428320;1286;141626;-58
2022/05/01 16:38:04;;;;;;;3.80;2.30;;;;;;;17.11;27.79;99725.15;429540;1286;142128;-58
2022/05/01 16:48:11;;;;;;;4.40;2.30;;;;;;;16.92;27.87;99727.27;426236;1286;145973;-58
2022/05/01 16:58:17;;;;;;;4.60;2.60;;;;;;;16.73;28.30;99725.61;426354;1287;144255;-58
2022/05/01 17:08:38;;;;;;;3.20;2.70;;;;;;;16.66;28.72;99727.28;426376;1286;145571;-58
2022/05/01 17:18:52;;;;;;;2.90;2.40;;;;;;;16.62;28.76;99735.16;427091;1287;181126;-57
2022/05/01 17:29:10;;;;;;;3.50;2.00;;;;;;;16.22;29.07;99737.14;426825;1286;145819;-59
2022/05/01 17:39:18;;;;;;;6.10;4.70;;;;;;;15.83;29.33;99742.71;428401;1285;142841;-58
2022/05/01 17:49:26;;;;;;;4.50;3.10;;;;;;;15.45;29.46;99739.81;426110;1287;144532;-59
2022/05/01 17:59:32;;;;;;;7.40;2.50;;;;;;;15.07;29.73;99750.98;425640;1287;141977;-58
2022/05/01 18:10:00;;;;;;;2.30;2.10;;;;;;;14.64;29.99;99765.30;424849;1287;141247;-58
2022/05/01 18:20:08;;;;;;;3.00;2.10;;;;;;;14.21;30.49;99771.66;426203;1287;141161;-58
2022/05/01 18:30:15;;;;;;;3.40;2.50;;;;;;;13.94;30.75;99780.08;425160;1287;142039;-62
2022/05/01 18:40:20;;;;;;;5.00;2.50;;;;;;;13.63;31.18;99788.48;426786;1287;142546;-58
2022/05/01 18:50:27;;;;;;;8.80;3.30;;;;;;;13.36;31.83;99796.92;426625;1287;140700;-60
2022/05/01 19:00:34;;;;;;;6.30;3.80;;;;;;;13.07;32.43;99802.88;427630;1286;143638;-56
2022/05/01 19:10:47;;;;;;;10.40;5.10;;;;;;;12.66;33.04;99802.36;429300;1286;141047;-59
2022/05/01 19:21:29;;;;;;;17.60;10.00;;;;;;;12.29;34.33;99801.54;426724;1286;141512;-59
2022/05/01 19:32:04;;;;;;;12.50;5.50;;;;;;;12.08;34.98;99805.05;434834;1286;140665;-59
2022/05/01 19:42:34;;;;;;;10.90;5.00;;;;;;;11.70;37.71;99806.40;425349;1287;194511;-58
2022/05/01 19:53:01;;;;;;;17.00;6.60;;;;;;;11.19;39.81;99808.95;428676;1287;140542;-58
2022/05/01 20:03:10;;;;;;;18.70;7.10;;;;;;;10.73;40.94;99813.55;426600;1287;141719;-59
2022/05/01 20:13:16;;;;;;;20.80;7.70;;;;;;;10.27;41.97;99815.70;428598;1287;141957;-60
2022/05/01 20:23:31;;;;;;;31.50;11.80;;;;;;;9.87;43.21;99811.34;428489;1287;142104;-59
2022/05/01 20:33:48;;;;;;;21.80;10.00;;;;;;;9.50;44.51;99810.96;426423;1286;142502;-60
2022/05/01 20:44:05;;;;;;;27.90;10.60;;;;;;;9.14;45.36;99804.57;425908;1287;140958;-59
2022/05/01 20:54:14;;;;;;;19.40;10.00;;;;;;;8.80;46.67;99803.08;427682;1287;144988;-58
2022/05/01 21:04:20;;;;;;;16.20;9.90;;;;;;;8.49;47.52;99803.94;427089;1287;140940;-58
2022/05/01 21:14:30;;;;;;;16.70;9.80;;;;;;;8.21;48.21;99803.25;426658;1287;140347;-59
2022/05/01 21:24:36;;;;;;;23.80;12.40;;;;;;;7.94;49.09;99801.98;425748;1287;141258;-58
2022/05/01 21:34:42;;;;;;;15.30;9.60;;;;;;;7.70;50.06;99806.63;426446;1287;341046;-60
2022/05/01 21:44:49;;;;;;;20.50;10.20;;;;;;;7.47;51.36;99803.90;425022;1287;141969;-59
2022/05/01 21:54:56;;;;;;;24.00;12.60;;;;;;;7.21;51.86;99802.69;426979;1287;140609;-57
2022/05/01 22:05:02;;;;;;;31.40;12.60;;;;;;;6.98;52.80;99800.76;426492;1287;142437;-59
2022/05/01 22:15:11;;;;;;;26.50;12.90;;;;;;;6.79;54.18;99804.92;425498;1287;142080;-58
2022/05/01 22:25:17;;;;;;;23.00;13.20;;;;;;;6.62;54.56;99800.13;426210;1287;140778;-57
2022/05/01 22:45:47;;;;;;;26.70;14.00;;;;;;;6.27;55.60;99791.71;426267;1287;140553;-59
2022/05/01 22:55:52;;;;;;;27.20;12.70;;;;;;;6.11;56.02;99793.58;426185;1287;142278;-59
2022/05/01 23:05:58;;;;;;;26.80;16.40;;;;;;;5.99;56.48;99792.69;425898;1287;140274;-60
2022/05/01 23:16:05;;;;;;;23.70;14.70;;;;;;;5.83;57.00;99792.96;426561;1287;141458;-61
2022/05/01 23:26:11;;;;;;;23.80;13.80;;;;;;;5.67;57.92;99790.49;428283;1287;141132;-58
2022/05/01 23:36:17;;;;;;;41.10;23.40;;;;;;;5.50;58.38;99788.73;426717;1287;141456;-61
2022/05/01 23:46:23;;;;;;;32.10;18.60;;;;;;;5.55;58.65;99785.25;426319;1287;141831;-61
2022/05/01 23:56:29;;;;;;;32.80;19.20;;;;;;;5.49;58.66;99788.42;427968;1287;141854;-62
